Airport View

Enter AWOS ICAO identifier for current METAR.

ex. KFNL

CWPZ 080400Z AUTO 27002KT 14/09 RMK AO1 SLP135 T01360093 51007

8 Jul 2020 04:18

Other Area AWOS: CYYD - CYXT - CYZY

TAF CYYD 080038Z 0801/0806 VRB03KT P6SM BKN060 TEMPO 0801/0806 P6SM -SHRA RMK NXT FCST WILL BE ISSUED AT 081345Z